Time;durP1;ratioP1;P1;durP2;ratioP2;P2;SDS_P1;SDS_P2;PMS_P1;PMS_P2;Temp;Humidity;BMP_temperature;BMP_pressure;BME280_temperature;BME280_humidity;BME280_pressure;Samples;Min_cycle;Max_cycle;Signal;HPM_P1;HPM_P2
2023/07/20 00:02:20;;;;;;;22.45;15.77;;;14.50;99.90;;;;;;5052490;28;20141;-79
2023/07/20 00:04:45;;;;;;;18.27;16.20;;;14.50;99.90;;;;;;5051257;28;20506;-79
2023/07/20 00:07:11;;;;;;;27.70;16.33;;;14.50;99.90;;;;;;5051584;28;20492;-79
2023/07/20 00:09:37;;;;;;;14.35;13.13;;;14.50;99.90;;;;;;5035062;28;20048;-79
2023/07/20 00:12:02;;;;;;;41.25;22.50;;;14.40;99.90;;;;;;5023162;28;20052;-79
2023/07/20 00:14:28;;;;;;;19.17;17.17;;;14.50;99.90;;;;;;5032062;28;20064;-79
2023/07/20 00:16:55;;;;;;;15.38;13.88;;;14.50;99.90;;;;;;5035253;28;20475;-79
2023/07/20 00:19:25;;;;;;;38.85;22.13;;;14.40;99.90;;;;;;5035868;28;20041;-79
2023/07/20 00:21:52;;;;;;;17.98;15.85;;;14.40;99.90;;;;;;5034720;28;20378;-79
2023/07/20 00:24:17;;;;;;;18.88;14.85;;;14.40;99.90;;;;;;5051097;28;20032;-79
2023/07/20 00:26:44;;;;;;;18.00;16.10;;;14.40;99.90;;;;;;5051339;28;20128;-79
2023/07/20 00:29:09;;;;;;;18.15;16.38;;;14.50;99.90;;;;;;5035035;28;20075;-79
2023/07/20 00:31:36;;;;;;;46.20;23.17;;;14.30;99.90;;;;;;5035361;28;20501;-79
2023/07/20 00:34:03;;;;;;;22.35;17.08;;;14.30;99.90;;;;;;5034654;28;20116;-79
2023/07/20 00:36:28;;;;;;;23.33;17.45;;;14.30;99.90;;;;;;5050412;28;20040;-79
2023/07/20 00:38:54;;;;;;;17.67;15.88;;;14.30;99.90;;;;;;5051904;28;20618;-79
2023/07/20 00:41:20;;;;;;;27.52;19.98;;;14.30;99.90;;;;;;5052354;28;20170;-79
2023/07/20 00:43:46;;;;;;;53.95;23.40;;;14.30;99.90;;;;;;5050710;28;20029;-79
2023/07/20 00:46:12;;;;;;;20.52;17.25;;;14.30;99.90;;;;;;5051557;28;20033;-79
2023/07/20 00:48:38;;;;;;;19.60;16.92;;;14.30;99.90;;;;;;5034314;28;20036;-79
2023/07/20 00:51:04;;;;;;;18.02;15.55;;;14.30;99.90;;;;;;5029767;28;20440;-79
2023/07/20 00:53:30;;;;;;;32.30;21.98;;;14.30;99.90;;;;;;5049163;28;20052;-79
2023/07/20 00:55:56;;;;;;;26.02;20.05;;;14.30;99.90;;;;;;5034094;28;20037;-79
2023/07/20 00:58:22;;;;;;;34.95;23.20;;;14.30;99.90;;;;;;5034708;28;20048;-79
2023/07/20 01:00:47;;;;;;;20.73;18.00;;;14.30;99.90;;;;;;5052369;28;20144;-79
2023/07/20 01:03:13;;;;;;;21.45;17.92;;;14.20;99.90;;;;;;5061576;28;20028;-79
2023/07/20 01:05:55;;;;;;;16.63;15.18;;;14.20;99.90;;;;;;5033991;28;20044;-79
2023/07/20 01:09:16;;;;;;;20.95;18.45;;;14.30;99.90;;;;;;5051235;28;20037;-79
2023/07/20 01:11:59;;;;;;;19.15;16.58;;;14.20;99.90;;;;;;4958788;28;20049;-78
2023/07/20 01:14:25;;;;;;;19.67;17.63;;;14.20;99.90;;;;;;5026665;28;20049;-79
2023/07/20 01:16:52;;;;;;;23.02;18.13;;;14.10;99.90;;;;;;5033743;28;20139;-79
2023/07/20 01:19:18;;;;;;;20.20;18.15;;;14.10;99.90;;;;;;5019035;28;20044;-79
2023/07/20 01:22:19;;;;;;;23.88;19.55;;;14.20;99.90;;;;;;5050632;28;20037;-79
2023/07/20 01:25:15;;;;;;;38.17;24.30;;;14.10;99.90;;;;;;5033329;28;20041;-80
2023/07/20 01:28:02;;;;;;;29.38;22.27;;;14.10;99.90;;;;;;5033212;28;20063;-79
2023/07/20 01:30:52;;;;;;;33.20;22.55;;;14.00;99.90;;;;;;5033089;28;20511;-79
2023/07/20 01:33:20;;;;;;;24.67;19.58;;;14.00;99.90;;;;;;5025696;28;20033;-79
2023/07/20 01:35:50;;;;;;;30.35;21.80;;;14.00;99.90;;;;;;5025044;28;20033;-79
2023/07/20 01:38:18;;;;;;;26.90;21.00;;;14.00;99.90;;;;;;5034334;28;20115;-79
2023/07/20 01:40:44;;;;;;;36.15;23.13;;;13.90;99.90;;;;;;5049928;28;20045;-79
2023/07/20 01:43:10;;;;;;;18.70;16.92;;;13.90;99.90;;;;;;5025257;28;20044;-79
2023/07/20 01:45:35;;;;;;;34.80;20.85;;;13.80;99.90;;;;;;5032543;28;20041;-79
2023/07/20 01:48:01;;;;;;;26.98;19.42;;;13.70;99.90;;;;;;5033251;28;20105;-79
2023/07/20 01:50:27;;;;;;;35.67;21.58;;;13.60;99.90;;;;;;5033676;28;20037;-79
2023/07/20 01:52:52;;;;;;;24.13;18.80;;;13.50;99.90;;;;;;5033682;28;20123;-79
2023/07/20 01:55:18;;;;;;;47.72;24.35;;;13.50;99.90;;;;;;5032498;28;20045;-79
2023/07/20 01:57:44;;;;;;;24.83;18.88;;;13.40;99.90;;;;;;5032907;28;20037;-79
2023/07/20 02:00:11;;;;;;;20.38;17.73;;;13.30;99.90;;;;;;5033927;28;20041;-79
2023/07/20 02:02:37;;;;;;;46.75;21.88;;;13.20;99.90;;;;;;5033583;28;20048;-78
2023/07/20 02:05:02;;;;;;;31.77;19.13;;;13.10;99.90;;;;;;5033292;28;20033;-79
2023/07/20 02:07:28;;;;;;;23.05;16.90;;;13.10;99.90;;;;;;5032999;28;20520;-79
2023/07/20 02:09:53;;;;;;;46.05;19.05;;;13.00;99.90;;;;;;5033629;28;20043;-79
2023/07/20 02:12:19;;;;;;;142.07;31.50;;;12.90;99.90;;;;;;5033762;28;20094;-79
2023/07/20 02:14:45;;;;;;;20.02;17.42;;;12.80;99.90;;;;;;5050059;28;20515;-79
2023/07/20 02:17:10;;;;;;;47.05;19.52;;;12.70;99.90;;;;;;5050364;28;20040;-79
2023/07/20 02:19:37;;;;;;;34.03;19.63;;;12.70;99.90;;;;;;5036631;28;20041;-79
2023/07/20 02:22:02;;;;;;;133.98;25.48;;;12.60;99.90;;;;;;5031692;28;20167;-79
2023/07/20 02:24:28;;;;;;;63.70;17.75;;;12.50;99.90;;;;;;5034062;28;20131;-80
2023/07/20 02:26:54;;;;;;;23.90;16.20;;;12.50;99.90;;;;;;5037690;28;20079;-79
2023/07/20 02:29:19;;;;;;;34.47;19.92;;;12.40;99.90;;;;;;5054006;28;20567;-79
2023/07/20 02:31:45;;;;;;;18.88;16.90;;;12.30;99.90;;;;;;5037254;28;20044;-79
2023/07/20 02:34:10;;;;;;;37.63;20.73;;;12.30;99.90;;;;;;5053671;28;20040;-79
2023/07/20 02:36:36;;;;;;;143.57;22.05;;;12.20;99.90;;;;;;5052413;28;20124;-79
2023/07/20 02:39:04;;;;;;;205.32;27.63;;;12.20;99.90;;;;;;5037555;28;20033;-79
2023/07/20 02:41:32;;;;;;;47.78;17.25;;;12.00;99.90;;;;;;5053494;28;20037;-79
2023/07/20 02:43:57;;;;;;;50.42;19.55;;;12.00;99.90;;;;;;5036450;28;20037;-79
2023/07/20 02:46:23;;;;;;;44.42;16.88;;;12.00;99.90;;;;;;5036097;28;20040;-79
2023/07/20 02:48:49;;;;;;;66.40;21.52;;;11.90;99.90;;;;;;5053585;28;20037;-79
2023/07/20 02:51:14;;;;;;;32.35;19.35;;;11.90;99.90;;;;;;5037309;28;20107;-79
2023/07/20 02:53:40;;;;;;;196.20;36.88;;;11.80;99.90;;;;;;5037058;28;20040;-79
2023/07/20 02:56:05;;;;;;;32.25;20.75;;;11.80;99.90;;;;;;5052946;28;20048;-79
2023/07/20 02:58:31;;;;;;;502.25;61.70;;;11.80;99.90;;;;;;5054123;28;20037;-79
2023/07/20 03:00:56;;;;;;;33.08;18.73;;;11.70;99.90;;;;;;5036591;28;20043;-79
2023/07/20 03:03:22;;;;;;;132.60;25.65;;;11.70;99.90;;;;;;5039372;28;20068;-79
2023/07/20 03:05:54;;;;;;;303.17;44.50;;;11.60;99.90;;;;;;5036859;28;20048;-79
2023/07/20 03:08:19;;;;;;;36.47;20.70;;;11.60;99.90;;;;;;5037638;28;20127;-79
2023/07/20 03:10:45;;;;;;;39.90;18.67;;;11.60;99.90;;;;;;5053629;28;20127;-79
2023/07/20 03:13:10;;;;;;;41.00;24.75;;;11.50;99.90;;;;;;5055379;28;20037;-79
2023/07/20 03:15:36;;;;;;;61.05;23.58;;;11.50;99.90;;;;;;5037311;28;20044;-79
2023/07/20 03:18:03;;;;;;;57.58;19.08;;;11.50;99.90;;;;;;5037528;28;20041;-79
2023/07/20 03:20:29;;;;;;;101.30;21.33;;;11.50;99.90;;;;;;5054626;28;20049;-79
2023/07/20 03:22:55;;;;;;;73.78;17.95;;;11.40;99.90;;;;;;5037862;28;20045;-79
2023/07/20 03:25:21;;;;;;;74.45;19.63;;;11.40;99.90;;;;;;5053101;28;20175;-79
2023/07/20 03:27:46;;;;;;;92.60;18.80;;;11.30;99.90;;;;;;5037807;28;20266;-79
2023/07/20 03:30:12;;;;;;;88.53;21.98;;;11.30;99.90;;;;;;5056113;28;20041;-79
2023/07/20 03:32:38;;;;;;;42.53;16.75;;;11.30;99.90;;;;;;5039372;28;20466;-79
2023/07/20 03:35:04;;;;;;;161.88;23.67;;;11.30;99.90;;;;;;5052653;28;20068;-79
2023/07/20 03:37:30;;;;;;;41.92;14.88;;;11.20;99.90;;;;;;5034917;28;20029;-79
2023/07/20 03:39:55;;;;;;;24.60;11.85;;;11.20;99.90;;;;;;5052711;28;20040;-79
2023/07/20 03:42:21;;;;;;;59.38;20.65;;;11.20;99.90;;;;;;5035565;28;20037;-78
2023/07/20 03:44:46;;;;;;;37.95;19.20;;;11.10;99.90;;;;;;5043226;28;20504;-78
2023/07/20 03:47:12;;;;;;;37.92;18.63;;;11.20;99.90;;;;;;5052166;28;20488;-79
2023/07/20 03:49:37;;;;;;;49.88;19.48;;;11.10;99.90;;;;;;5036004;28;20033;-79
2023/07/20 03:52:04;;;;;;;51.55;18.25;;;11.10;99.90;;;;;;5051430;28;20457;-79
2023/07/20 03:54:30;;;;;;;28.90;19.88;;;11.00;99.90;;;;;;5035066;28;20040;-79
2023/07/20 03:56:55;;;;;;;33.20;18.52;;;11.00;99.90;;;;;;5076403;22;20106;-84
2023/07/20 03:59:21;;;;;;;71.93;18.02;;;11.00;99.90;;;;;;5035861;28;20326;-84
2023/07/20 04:01:46;;;;;;;378.10;49.40;;;11.00;99.90;;;;;;5052278;28;20408;-83
2023/07/20 04:04:15;;;;;;;66.25;23.80;;;11.00;99.90;;;;;;5040184;28;20090;-84
2023/07/20 04:06:44;;;;;;;23.58;18.50;;;11.10;99.90;;;;;;5036225;28;20381;-84
2023/07/20 04:09:11;;;;;;;78.50;33.67;;;11.00;99.90;;;;;;5035623;28;20079;-84
2023/07/20 04:11:36;;;;;;;70.25;28.25;;;11.00;99.90;;;;;;5035287;28;20553;-84
2023/07/20 04:14:02;;;;;;;104.68;29.98;;;11.00;99.90;;;;;;5034814;28;20070;-86
2023/07/20 04:16:27;;;;;;;58.72;25.00;;;11.10;99.90;;;;;;5052542;28;20527;-84
2023/07/20 04:18:56;;;;;;;47.85;20.30;;;11.10;99.90;;;;;;5035786;28;20037;-84
2023/07/20 04:21:22;;;;;;;35.45;20.73;;;11.10;99.90;;;;;;5035922;28;20029;-84
2023/07/20 04:23:48;;;;;;;19.65;17.65;;;11.10;99.90;;;;;;5036589;28;20029;-83
2023/07/20 04:26:14;;;;;;;190.30;31.85;;;11.10;99.90;;;;;;5040188;28;20035;-84
2023/07/20 04:28:42;;;;;;;154.65;26.38;;;11.20;99.90;;;;;;5035538;28;20561;-84
2023/07/20 04:31:14;;;;;;;141.75;35.88;;;11.10;99.90;;;;;;5037010;28;20037;-84
2023/07/20 04:33:40;;;;;;;21.38;18.13;;;11.20;99.90;;;;;;5051517;28;20497;-84
2023/07/20 04:36:07;;;;;;;27.35;21.08;;;11.20;99.90;;;;;;5035298;28;20116;-83
2023/07/20 04:38:32;;;;;;;24.67;22.02;;;11.20;99.90;;;;;;5052363;28;20124;-84
2023/07/20 04:40:58;;;;;;;53.90;24.33;;;11.30;99.90;;;;;;5051682;28;20465;-84
2023/07/20 04:43:24;;;;;;;47.20;25.33;;;11.40;99.90;;;;;;5034995;28;20512;-84
2023/07/20 04:45:50;;;;;;;30.98;25.10;;;11.50;99.90;;;;;;5037787;28;20040;-84
2023/07/20 04:48:17;;;;;;;40.20;24.92;;;11.80;99.90;;;;;;5035094;28;20064;-84
2023/07/20 04:50:44;;;;;;;150.32;30.30;;;12.20;99.90;;;;;;5064755;28;20048;-83
2023/07/20 04:53:13;;;;;;;73.95;24.63;;;12.80;99.90;;;;;;5046682;28;20041;-84
2023/07/20 04:55:39;;;;;;;17.05;13.07;;;13.50;99.90;;;;;;5035077;28;20131;-83
2023/07/20 04:58:06;;;;;;;14.15;12.73;;;14.30;99.90;;;;;;5034759;28;20186;-84
2023/07/20 05:00:33;;;;;;;24.17;15.13;;;15.10;99.90;;;;;;5056175;28;20078;-83
2023/07/20 05:02:59;;;;;;;20.38;13.55;;;15.80;99.90;;;;;;5052454;28;20038;-83
2023/07/20 05:05:24;;;;;;;11.20;10.00;;;16.50;99.90;;;;;;5018259;28;20033;-82
2023/07/20 05:07:50;;;;;;;19.23;12.23;;;17.10;99.90;;;;;;5030113;28;20040;-81
2023/07/20 05:10:16;;;;;;;19.23;11.75;;;17.60;99.90;;;;;;5050154;28;20041;-84
2023/07/20 05:12:41;;;;;;;9.88;8.85;;;18.10;99.90;;;;;;5033856;28;20033;-83
2023/07/20 05:15:07;;;;;;;7.95;7.25;;;18.50;99.90;;;;;;5049773;28;20493;-83
2023/07/20 05:17:33;;;;;;;8.02;7.22;;;18.90;99.90;;;;;;5033892;28;20440;-83
2023/07/20 05:19:59;;;;;;;9.25;7.18;;;19.30;99.90;;;;;;5048996;28;20041;-81
2023/07/20 05:22:24;;;;;;;7.28;6.57;;;19.80;99.90;;;;;;5050004;28;20090;-82
2023/07/20 05:24:50;;;;;;;6.65;6.05;;;20.20;99.90;;;;;;5050878;28;20043;-84
2023/07/20 05:27:16;;;;;;;7.78;6.78;;;20.50;99.90;;;;;;5026646;28;20492;-82
2023/07/20 05:29:45;;;;;;;7.20;6.50;;;20.80;99.90;;;;;;5049562;28;20047;-81
2023/07/20 05:32:12;;;;;;;6.07;5.57;;;21.20;99.90;;;;;;5033875;28;20041;-81
2023/07/20 05:34:38;;;;;;;5.95;5.45;;;21.50;99.90;;;;;;5050978;28;20087;-84
2023/07/20 05:37:04;;;;;;;6.00;4.40;;;21.70;99.90;;;;;;5037073;28;20037;-82
2023/07/20 05:39:29;;;;;;;4.97;4.57;;;22.00;99.90;;;;;;5050585;28;20098;-82
2023/07/20 05:41:55;;;;;;;5.15;4.65;;;22.20;99.90;;;;;;5052007;28;20033;-83
2023/07/20 05:44:47;;;;;;;4.93;4.22;;;22.30;99.90;;;;;;5050972;28;20033;-83
2023/07/20 05:47:59;;;;;;;4.57;4.18;;;22.50;99.90;;;;;;5037635;28;20056;-82
2023/07/20 05:51:12;;;;;;;4.53;4.03;;;22.60;99.90;;;;;;5037929;28;20041;-82
2023/07/20 05:53:47;;;;;;;4.97;4.25;;;22.60;99.90;;;;;;5050684;28;20080;-82
2023/07/20 06:11:39;;;;;;;5.57;5.03;;;19.30;99.90;;;;;;5013817;28;20049;-82
2023/07/20 06:14:05;;;;;;;6.13;4.75;;;18.70;99.90;;;;;;4999951;28;20128;-82
2023/07/20 06:16:30;;;;;;;5.03;4.50;;;18.30;99.90;;;;;;5031198;23;20129;-85
2023/07/20 06:18:57;;;;;;;5.32;4.82;;;17.90;99.90;;;;;;4996775;28;20071;-82
2023/07/20 06:21:22;;;;;;;5.55;5.05;;;17.60;99.90;;;;;;5014354;28;20484;-83
2023/07/20 06:23:48;;;;;;;6.57;5.70;;;17.20;99.90;;;;;;4998401;28;20120;-83
2023/07/20 06:26:17;;;;;;;6.07;5.57;;;17.00;99.90;;;;;;4997705;28;20176;-83
2023/07/20 06:32:28;;;;;;;7.22;6.38;;;16.50;99.90;;;;;;5038040;23;19921;-77
2023/07/20 06:34:53;;;;;;;6.78;5.60;;;16.40;99.90;;;;;;5013700;28;20398;-77
2023/07/20 06:37:20;;;;;;;7.05;6.00;;;16.20;99.90;;;;;;5013645;28;20045;-77
2023/07/20 06:39:46;;;;;;;5.63;5.13;;;16.10;99.90;;;;;;5012311;28;20076;-77
2023/07/20 06:42:11;;;;;;;6.15;5.57;;;16.10;99.90;;;;;;5010051;28;20521;-77
2023/07/20 06:44:37;;;;;;;6.72;6.15;;;16.00;99.90;;;;;;4993254;28;20050;-77
2023/07/20 06:47:03;;;;;;;5.30;4.85;;;16.00;99.90;;;;;;4993509;28;20061;-77
2023/07/20 06:49:28;;;;;;;6.22;5.63;;;16.10;99.90;;;;;;4993851;28;20490;-77
2023/07/20 06:51:54;;;;;;;6.13;5.50;;;16.10;99.90;;;;;;4994046;28;20467;-77
2023/07/20 06:54:20;;;;;;;5.75;5.13;;;16.10;99.90;;;;;;4993041;28;20049;-77
2023/07/20 06:56:45;;;;;;;5.80;4.75;;;16.10;99.90;;;;;;4993638;28;20042;-77
2023/07/20 06:59:11;;;;;;;6.30;3.55;;;16.00;99.90;;;;;;4977502;28;20039;-77
2023/07/20 07:01:37;;;;;;;3.97;3.60;;;16.00;99.90;;;;;;4993408;28;20568;-77
2023/07/20 07:04:03;;;;;;;2.70;2.20;;;16.00;99.90;;;;;;4992662;28;20405;-78
2023/07/20 07:06:29;;;;;;;4.75;3.72;;;15.80;99.90;;;;;;4993256;28;20077;-78
2023/07/20 07:08:54;;;;;;;3.83;3.03;;;15.90;99.90;;;;;;4991537;28;20498;-77
2023/07/20 07:11:21;;;;;;;3.70;3.03;;;15.80;99.90;;;;;;4993194;28;20046;-78
2023/07/20 07:13:49;;;;;;;3.17;2.88;;;15.90;99.90;;;;;;4993271;28;20066;-78
2023/07/20 07:16:18;;;;;;;2.72;2.53;;;15.90;99.90;;;;;;4993061;28;20046;-78
2023/07/20 07:18:44;;;;;;;4.70;3.33;;;15.90;99.90;;;;;;4976647;28;20449;-78
2023/07/20 07:21:10;;;;;;;3.92;3.53;;;15.90;99.90;;;;;;4991915;28;20034;-78
2023/07/20 07:23:35;;;;;;;3.80;1.70;;;16.00;99.90;;;;;;4992961;28;20068;-78
2023/07/20 07:26:01;;;;;;;3.20;1.42;;;16.00;99.90;;;;;;4976787;28;20080;-78
2023/07/20 07:28:28;;;;;;;3.35;2.38;;;15.90;99.90;;;;;;4993313;28;20494;-78
2023/07/20 07:30:56;;;;;;;2.90;2.25;;;15.90;99.90;;;;;;4975519;28;20177;-78
2023/07/20 07:33:22;;;;;;;3.75;1.92;;;15.90;99.90;;;;;;4991874;28;20049;-78
2023/07/20 07:35:51;;;;;;;3.50;2.65;;;15.90;99.90;;;;;;4976354;28;20047;-78
2023/07/20 07:38:17;;;;;;;3.05;2.17;;;16.00;99.90;;;;;;4992814;28;20053;-77
2023/07/20 07:40:42;;;;;;;3.35;2.00;;;16.30;99.90;;;;;;4992790;28;20034;-77
2023/07/20 07:43:09;;;;;;;3.08;1.70;;;16.50;99.90;;;;;;4992923;28;20129;-78
2023/07/20 07:45:38;;;;;;;2.22;1.55;;;16.70;99.90;;;;;;4991973;28;20494;-78
2023/07/20 07:48:05;;;;;;;3.70;1.90;;;16.80;99.90;;;;;;4992783;28;20443;-78
2023/07/20 07:50:30;;;;;;;2.78;2.28;;;16.90;99.90;;;;;;4992638;28;20061;-78
2023/07/20 07:52:56;;;;;;;3.08;1.42;;;17.10;99.90;;;;;;4976449;28;20487;-78
2023/07/20 07:55:22;;;;;;;3.45;2.35;;;17.50;99.90;;;;;;4992693;28;20042;-78
2023/07/20 07:57:47;;;;;;;3.45;1.83;;;18.00;99.90;;;;;;4976257;28;20506;-78
2023/07/20 08:00:14;;;;;;;3.97;1.60;;;18.20;99.90;;;;;;4990822;28;20117;-78
2023/07/20 08:02:41;;;;;;;2.88;1.63;;;18.30;99.90;;;;;;4992364;28;20065;-78
2023/07/20 08:05:07;;;;;;;2.65;1.70;;;18.50;99.90;;;;;;4991926;28;20054;-78
2023/07/20 08:07:33;;;;;;;2.78;2.05;;;18.60;99.90;;;;;;4992262;28;20128;-78
2023/07/20 08:10:00;;;;;;;3.97;2.00;;;18.60;99.90;;;;;;4976557;28;20038;-78
2023/07/20 08:12:26;;;;;;;2.40;2.00;;;18.40;99.90;;;;;;4976013;28;20038;-78
2023/07/20 08:14:52;;;;;;;3.75;1.70;;;18.30;99.90;;;;;;4991581;28;20502;-78
2023/07/20 08:17:18;;;;;;;2.88;1.88;;;18.00;99.90;;;;;;4991170;28;20045;-78
2023/07/20 08:19:44;;;;;;;2.05;1.85;;;17.80;99.90;;;;;;4992184;28;20034;-78
2023/07/20 08:22:10;;;;;;;3.90;2.65;;;17.70;99.90;;;;;;4991998;28;20089;-78
2023/07/20 08:24:39;;;;;;;3.42;2.10;;;17.80;99.90;;;;;;4991423;28;20050;-78
2023/07/20 08:27:05;;;;;;;2.13;1.80;;;18.60;99.90;;;;;;4991994;28;20184;-78
2023/07/20 08:29:31;;;;;;;2.80;2.17;;;19.50;99.90;;;;;;4991935;28;20490;-77
2023/07/20 08:31:56;;;;;;;5.93;2.00;;;20.10;99.90;;;;;;4974606;28;20042;-77
2023/07/20 08:34:22;;;;;;;2.92;1.85;;;20.40;99.90;;;;;;4991706;28;20042;-77
2023/07/20 08:36:47;;;;;;;2.60;1.60;;;20.40;99.90;;;;;;4991836;28;20497;-78
2023/07/20 08:39:13;;;;;;;3.03;1.60;;;20.30;99.90;;;;;;4991326;28;20089;-78
2023/07/20 08:41:39;;;;;;;2.35;1.40;;;20.30;99.90;;;;;;4991624;28;20041;-78
2023/07/20 08:44:05;;;;;;;2.53;1.85;;;20.30;99.90;;;;;;4991650;28;20045;-78
2023/07/20 08:46:31;;;;;;;4.50;1.40;;;20.30;99.90;;;;;;4990660;28;20038;-78
2023/07/20 08:48:58;;;;;;;2.13;1.60;;;20.20;99.90;;;;;;4991796;28;20040;-78
2023/07/20 08:51:25;;;;;;;3.50;2.17;;;20.10;99.90;;;;;;4991513;28;20042;-78
2023/07/20 08:53:52;;;;;;;1.70;1.48;;;20.10;99.90;;;;;;4991507;28;20042;-78
2023/07/20 08:56:19;;;;;;;2.35;1.55;;;20.40;99.90;;;;;;4991336;28;20456;-78
2023/07/20 08:58:46;;;;;;;2.33;1.50;;;21.10;99.90;;;;;;4991380;28;20514;-78
2023/07/20 09:01:13;;;;;;;1.95;1.50;;;21.40;99.90;;;;;;4990542;28;20256;-78
2023/07/20 09:03:39;;;;;;;3.50;1.58;;;21.70;99.90;;;;;;4991435;28;20463;-78
2023/07/20 09:06:05;;;;;;;2.47;1.42;;;22.40;99.90;;;;;;4991145;28;20077;-78
2023/07/20 09:08:31;;;;;;;2.35;1.27;;;23.10;99.90;;;;;;4991324;28;20534;-78
2023/07/20 09:10:57;;;;;;;2.30;1.20;;;23.70;99.90;;;;;;4990614;28;20042;-78
2023/07/20 09:13:25;;;;;;;2.80;1.30;;;24.20;99.90;;;;;;4989959;28;20546;-78
2023/07/20 09:15:54;;;;;;;3.13;1.25;;;24.40;99.90;;;;;;4983023;28;20117;-78
2023/07/20 09:18:38;;;;;;;1.40;1.05;;;24.20;99.90;;;;;;4974982;28;20045;-78
2023/07/20 09:21:08;;;;;;;2.47;1.23;;;23.60;99.90;;;;;;4991150;28;20034;-78
2023/07/20 09:23:40;;;;;;;2.50;1.13;;;23.10;99.90;;;;;;4991207;28;20046;-78
2023/07/20 09:26:11;;;;;;;1.90;1.00;;;22.60;99.90;;;;;;4974209;28;20050;-78
2023/07/20 09:28:44;;;;;;;2.72;1.23;;;22.40;99.90;;;;;;4989912;28;20046;-78
2023/07/20 09:31:18;;;;;;;3.00;1.20;;;22.10;99.90;;;;;;4990756;28;20034;-78
2023/07/20 09:33:45;;;;;;;2.17;1.10;;;21.90;99.90;;;;;;4990859;28;20050;-78
2023/07/20 09:36:13;;;;;;;2.72;1.25;;;21.90;99.90;;;;;;4990788;28;20053;-77
2023/07/20 09:38:41;;;;;;;1.60;1.02;;;21.90;99.90;;;;;;4988023;28;20073;-78
2023/07/20 09:41:06;;;;;;;2.40;0.90;;;22.00;99.90;;;;;;4990180;28;20045;-78
2023/07/20 09:43:34;;;;;;;2.15;0.80;;;22.50;99.90;;;;;;4989537;28;20038;-78
2023/07/20 09:46:00;;;;;;;1.67;0.90;;;23.30;99.90;;;;;;4990041;28;20041;-78
2023/07/20 09:48:26;;;;;;;2.80;0.80;;;23.80;99.90;;;;;;4974645;28;20034;-78
2023/07/20 09:50:53;;;;;;;1.73;0.95;;;24.30;99.90;;;;;;4990149;28;20044;-78
2023/07/20 09:53:20;;;;;;;1.73;0.93;;;24.50;99.90;;;;;;4990073;28;20034;-78
2023/07/20 09:55:47;;;;;;;2.15;1.00;;;24.60;99.90;;;;;;4990637;28;20406;-77
2023/07/20 09:58:14;;;;;;;2.28;0.88;;;24.60;99.90;;;;;;4990822;28;20042;-77
2023/07/20 10:00:44;;;;;;;1.23;0.80;;;24.50;99.90;;;;;;4974515;28;20066;-77
2023/07/20 10:03:12;;;;;;;2.17;1.02;;;24.30;99.90;;;;;;4991048;28;20052;-78
2023/07/20 10:05:43;;;;;;;2.55;1.13;;;24.10;99.90;;;;;;4973857;28;20150;-78
2023/07/20 10:08:12;;;;;;;2.63;0.90;;;24.00;99.90;;;;;;4990412;28;20038;-77
2023/07/20 10:10:40;;;;;;;2.55;0.90;;;23.60;99.90;;;;;;4990606;28;20545;-77
2023/07/20 10:13:13;;;;;;;3.58;1.10;;;23.20;99.90;;;;;;4990686;28;20070;-77
2023/07/20 10:15:53;;;;;;;1.95;1.33;;;22.50;99.90;;;;;;4989868;28;20054;-77
2023/07/20 10:18:45;;;;;;;5.80;1.25;;;21.80;99.90;;;;;;4990855;28;20026;-77
2023/07/20 10:21:12;;;;;;;8.98;2.65;;;21.20;99.90;;;;;;4991073;28;20035;-78
2023/07/20 10:23:39;;;;;;;20.15;3.65;;;20.70;99.90;;;;;;4988872;28;20042;-78
2023/07/20 10:26:05;;;;;;;16.98;3.45;;;20.20;99.90;;;;;;4990353;28;20865;-78
2023/07/20 10:28:31;;;;;;;22.95;5.07;;;19.60;99.90;;;;;;4974366;28;20046;-78
2023/07/20 10:30:56;;;;;;;18.77;4.43;;;19.10;99.90;;;;;;4973852;28;20049;-77
2023/07/20 10:33:22;;;;;;;6.72;3.03;;;18.50;99.90;;;;;;4974264;28;20034;-77
2023/07/20 10:35:56;;;;;;;5.43;3.13;;;18.10;99.90;;;;;;4990326;28;20038;-77
2023/07/20 10:38:40;;;;;;;4.35;2.42;;;17.90;99.90;;;;;;4988271;28;20061;-77
2023/07/20 10:41:29;;;;;;;3.30;2.30;;;17.70;99.90;;;;;;4988225;28;20055;-77
2023/07/20 10:44:04;;;;;;;3.35;2.28;;;17.70;99.90;;;;;;4979022;28;20052;-77
2023/07/20 10:46:39;;;;;;;2.78;2.03;;;17.70;99.90;;;;;;4993968;28;20073;-77
2023/07/20 10:49:06;;;;;;;4.43;3.03;;;17.90;99.90;;;;;;4977699;28;20045;-77
2023/07/20 10:51:47;;;;;;;4.30;3.10;;;18.00;99.90;;;;;;4993820;28;20486;-77
2023/07/20 10:54:16;;;;;;;5.15;2.40;;;18.40;99.90;;;;;;4990298;28;20054;-77
2023/07/20 10:56:42;;;;;;;4.07;3.35;;;18.90;99.90;;;;;;4990209;28;20041;-77
2023/07/20 10:59:36;;;;;;;2.80;1.77;;;19.30;99.90;;;;;;4974662;28;20102;-77
2023/07/20 11:02:06;;;;;;;3.70;2.17;;;19.60;99.90;;;;;;4990383;28;20051;-77
2023/07/20 11:04:39;;;;;;;2.35;1.50;;;19.70;99.90;;;;;;4974094;28;20057;-77
2023/07/20 11:07:06;;;;;;;;;;;19.80;99.90;;;;;;4974355;28;20042;-77
2023/07/20 11:09:38;;;;;;;2.50;2.03;;;19.90;99.90;;;;;;4991037;28;20016;-78
2023/07/20 11:12:14;;;;;;;3.08;1.70;;;20.30;99.90;;;;;;4993425;28;20491;-77
2023/07/20 11:14:59;;;;;;;3.75;2.20;;;20.80;99.90;;;;;;4993451;28;20164;-77
2023/07/20 11:17:32;;;;;;;3.78;1.98;;;21.20;99.90;;;;;;4993179;28;20390;-77
2023/07/20 11:19:58;;;;;;;;;;;21.30;99.90;;;;;;4993272;28;20066;-77
2023/07/20 11:22:24;;;;;;;2.33;1.90;;;21.20;99.90;;;;;;4976967;28;19917;-78
2023/07/20 11:24:50;;;;;;;4.28;2.50;;;21.20;99.90;;;;;;4977038;28;20040;-77
2023/07/20 11:27:16;;;;;;;2.58;1.90;;;21.20;99.90;;;;;;4992903;28;20046;-79
2023/07/20 11:29:41;;;;;;;2.75;2.20;;;21.30;99.90;;;;;;4993084;28;20430;-77
2023/07/20 11:32:07;;;;;;;4.72;2.53;;;21.20;99.90;;;;;;4992339;28;20118;-77
2023/07/20 11:34:35;;;;;;;3.78;2.10;;;21.20;99.90;;;;;;4992388;28;20042;-78
2023/07/20 11:37:01;;;;;;;2.65;1.90;;;21.10;99.90;;;;;;4992722;28;20092;-77
2023/07/20 11:39:28;;;;;;;2.90;1.70;;;21.10;99.90;;;;;;4977081;28;20054;-78
2023/07/20 11:41:57;;;;;;;3.42;1.52;;;21.00;99.90;;;;;;4992991;28;20125;-77
2023/07/20 11:44:29;;;;;;;2.45;1.60;;;20.80;99.90;;;;;;4976598;28;20446;-78
2023/07/20 11:47:08;;;;;;;3.28;1.77;;;20.70;99.90;;;;;;4989377;28;20034;-78
2023/07/20 11:49:38;;;;;;;2.80;2.10;;;20.60;99.90;;;;;;4993045;28;20578;-77
2023/07/20 11:52:08;;;;;;;2.72;1.90;;;20.60;99.90;;;;;;4992507;28;20038;-78
2023/07/20 11:54:35;;;;;;;2.50;1.83;;;20.60;99.90;;;;;;4992518;28;20093;-77
2023/07/20 11:57:01;;;;;;;3.92;2.22;;;20.70;99.90;;;;;;4991827;28;20044;-78
2023/07/20 11:59:27;;;;;;;3.33;2.05;;;20.70;99.90;;;;;;4991839;28;20057;-78
2023/07/20 12:01:53;;;;;;;2.90;2.00;;;20.70;99.90;;;;;;4976067;28;20030;-78
2023/07/20 12:04:19;;;;;;;2.85;1.92;;;20.80;99.90;;;;;;4992632;28;20038;-77
2023/07/20 12:06:46;;;;;;;2.20;1.77;;;20.80;99.90;;;;;;4992485;28;20046;-78
2023/07/20 12:09:16;;;;;;;3.42;2.22;;;20.70;99.90;;;;;;4992359;28;20038;-78
2023/07/20 12:11:44;;;;;;;4.57;2.22;;;20.70;99.90;;;;;;4975617;28;20125;-77
2023/07/20 12:14:10;;;;;;;3.65;1.75;;;20.70;99.90;;;;;;4975810;28;20040;-78
2023/07/20 12:16:40;;;;;;;1.95;1.85;;;20.80;99.90;;;;;;4992073;28;20536;-78
2023/07/20 12:19:12;;;;;;;3.92;1.80;;;20.90;99.90;;;;;;4992189;28;20070;-78
2023/07/20 12:21:42;;;;;;;3.22;1.80;;;21.10;99.90;;;;;;4990400;28;20490;-78
2023/07/20 12:24:11;;;;;;;3.13;1.73;;;21.50;99.90;;;;;;4975732;28;20034;-78
2023/07/20 12:26:37;;;;;;;1.58;1.30;;;22.20;99.90;;;;;;4991966;28;20561;-78
2023/07/20 12:29:04;;;;;;;2.65;1.40;;;23.10;99.90;;;;;;4992004;28;20034;-78
2023/07/20 12:31:52;;;;;;;2.78;1.30;;;23.70;99.90;;;;;;5021851;23;20074;-76
2023/07/20 12:34:23;;;;;;;1.67;1.15;;;24.30;99.90;;;;;;4974885;28;20458;-76
2023/07/20 12:37:09;;;;;;;1.90;1.02;;;24.70;99.90;;;;;;4975157;28;20042;-76
2023/07/20 12:40:10;;;;;;;3.20;1.45;;;25.20;99.90;;;;;;4975998;28;20058;-77
2023/07/20 12:42:47;;;;;;;3.42;1.55;;;25.40;99.90;;;;;;4973984;28;20459;-76
2023/07/20 12:45:42;;;;;;;2.65;1.40;;;24.80;99.90;;;;;;4990966;28;20057;-76
2023/07/20 12:48:08;;;;;;;1.83;1.10;;;24.50;99.90;;;;;;4990471;28;20529;-77
2023/07/20 12:51:14;;;;;;;3.08;1.30;;;24.10;99.90;;;;;;4955791;28;20034;-76
2023/07/20 12:53:53;;;;;;;2.08;1.10;;;23.40;99.90;;;;;;4955366;28;20126;-76
2023/07/20 12:56:44;;;;;;;1.67;1.20;;;22.90;99.90;;;;;;4971797;28;20050;-76
2023/07/20 13:02:25;;;;;;;2.28;1.40;;;22.20;99.90;;;;;;4966380;28;20182;-76
2023/07/20 13:05:01;;;;;;;2.60;1.27;;;22.00;99.90;;;;;;4953647;28;20058;-76
2023/07/20 13:07:39;;;;;;;1.30;1.10;;;22.00;99.90;;;;;;4971051;28;20043;-76
2023/07/20 13:10:25;;;;;;;3.67;1.10;;;22.00;99.90;;;;;;4955262;28;20151;-76